createdAt,value
2018-08-27T00:00:49.007Z,1005.46
2018-08-27T00:02:41.919Z,1005.42
2018-08-27T00:03:41.842Z,1005.42
2018-08-27T00:05:35.438Z,1005.43
2018-08-27T00:06:35.231Z,1005.43
2018-08-27T00:08:28.662Z,1005.47
2018-08-27T00:09:28.578Z,1005.42
2018-08-27T00:11:21.788Z,1005.42
2018-08-27T00:12:21.497Z,1005.42
2018-08-27T00:14:14.915Z,1005.43
2018-08-27T00:15:14.814Z,1005.42
2018-08-27T00:17:08.430Z,1005.35
2018-08-27T00:18:08.185Z,1005.29
2018-08-27T00:20:01.323Z,1005.35
2018-08-27T00:21:01.089Z,1005.39
2018-08-27T00:22:54.276Z,1005.33
2018-08-27T00:23:54.042Z,1005.32
2018-08-27T00:25:48.234Z,1005.30
2018-08-27T00:26:47.414Z,1005.26
2018-08-27T00:28:40.322Z,1005.22
2018-08-27T00:29:40.320Z,1005.26
2018-08-27T00:31:33.715Z,1005.34
2018-08-27T00:32:33.653Z,1005.33
2018-08-27T00:34:26.723Z,1005.36
2018-08-27T00:35:26.520Z,1005.42
2018-08-27T00:37:19.502Z,1005.35
2018-08-27T00:38:19.403Z,1005.33
2018-08-27T00:40:12.502Z,1005.30
2018-08-27T00:41:12.304Z,1005.28
2018-08-27T00:43:05.656Z,1005.26
2018-08-27T00:44:05.641Z,1005.26
2018-08-27T00:45:59.029Z,1005.27
2018-08-27T00:46:59.017Z,1005.27
2018-08-27T00:48:52.496Z,1005.19
2018-08-27T00:49:52.394Z,1005.19
2018-08-27T00:51:45.296Z,1005.20
2018-08-27T00:52:45.266Z,1005.25
2018-08-27T00:54:38.345Z,1005.20
2018-08-27T00:55:38.131Z,1005.22
2018-08-27T00:57:31.545Z,1005.23
2018-08-27T00:58:31.511Z,1005.28
2018-08-27T01:00:24.904Z,1005.28
2018-08-27T01:01:24.861Z,1005.30
2018-08-27T01:03:18.272Z,1005.27
2018-08-27T01:04:18.233Z,1005.19
2018-08-27T01:06:11.203Z,1005.15
2018-08-27T01:07:11.122Z,1005.15
2018-08-27T01:09:04.513Z,1005.20
2018-08-27T01:10:04.465Z,1005.24
2018-08-27T01:11:58.624Z,1005.17
2018-08-27T01:12:57.847Z,1005.22
2018-08-27T01:14:51.428Z,1005.19
2018-08-27T01:15:51.230Z,1005.18
2018-08-27T01:17:44.859Z,1005.17
2018-08-27T01:18:45.145Z,1005.16
2018-08-27T01:20:38.078Z,1005.04
2018-08-27T01:21:37.942Z,1005.09
2018-08-27T01:23:31.081Z,1005.10
2018-08-27T01:24:30.836Z,1005.03
2018-08-27T01:26:25.490Z,1004.99
2018-08-27T01:27:24.749Z,1005.02
2018-08-27T01:29:17.872Z,1004.98
2018-08-27T01:30:17.598Z,1004.96
2018-08-27T01:32:10.945Z,1004.98
2018-08-27T01:33:10.908Z,1004.86
2018-08-27T01:35:04.581Z,1004.98
2018-08-27T01:36:04.308Z,1004.96
2018-08-27T01:37:57.684Z,1004.82
2018-08-27T01:38:57.678Z,1004.83
2018-08-27T01:40:51.432Z,1004.77
2018-08-27T01:41:51.029Z,1004.78
2018-08-27T01:43:44.179Z,1004.71
2018-08-27T01:44:44.469Z,1004.68
2018-08-27T01:46:36.950Z,1004.54
2018-08-27T01:47:36.751Z,1004.58
2018-08-27T01:49:29.676Z,1004.48
2018-08-27T01:50:29.850Z,1004.50
2018-08-27T01:52:23.310Z,1004.35
2018-08-27T01:53:23.015Z,1004.35
2018-08-27T01:55:16.012Z,1004.32
2018-08-27T01:56:15.858Z,1004.32
2018-08-27T01:58:08.884Z,1004.33
2018-08-27T01:59:08.855Z,1004.40
2018-08-27T02:01:01.851Z,1004.36
2018-08-27T02:02:01.715Z,1004.26
2018-08-27T02:03:54.717Z,1004.27
2018-08-27T02:04:54.598Z,1004.19
2018-08-27T02:06:47.633Z,1004.19
2018-08-27T02:07:47.462Z,1004.17
2018-08-27T02:09:40.372Z,1004.19
2018-08-27T02:10:40.350Z,1004.18
2018-08-27T02:12:33.730Z,1004.15
2018-08-27T02:13:33.696Z,1004.12
2018-08-27T02:15:27.114Z,1004.15
2018-08-27T02:16:27.087Z,1004.13
2018-08-27T02:18:20.020Z,1004.10
2018-08-27T02:19:19.971Z,1004.03
2018-08-27T02:21:13.922Z,1004.13
2018-08-27T02:22:13.371Z,1004.05
2018-08-27T02:24:06.912Z,1004.06
2018-08-27T02:25:06.748Z,1004.01
2018-08-27T02:26:59.792Z,1004.02
2018-08-27T02:27:59.578Z,1004.00
2018-08-27T02:29:52.970Z,1004.03
2018-08-27T02:30:52.938Z,1004.01
2018-08-27T02:32:46.417Z,1003.95
2018-08-27T02:33:46.301Z,1003.96
2018-08-27T02:35:39.433Z,1003.98
2018-08-27T02:36:39.205Z,1004.01
2018-08-27T02:38:32.814Z,1004.03
2018-08-27T02:39:32.540Z,1004.10
2018-08-27T02:41:25.653Z,1004.08
2018-08-27T02:42:25.415Z,1004.14
2018-08-27T02:44:19.362Z,1004.16
2018-08-27T02:45:19.339Z,1004.13
2018-08-27T02:47:12.954Z,1004.19
2018-08-27T02:48:12.705Z,1004.16
2018-08-27T02:50:06.101Z,1004.04
2018-08-27T02:51:06.071Z,1004.09
2018-08-27T02:52:59.489Z,1004.08
2018-08-27T02:53:59.431Z,1004.11
2018-08-27T02:55:52.889Z,1004.13
2018-08-27T02:56:52.789Z,1004.09
2018-08-27T02:58:46.369Z,1004.08
2018-08-27T02:59:46.160Z,1004.06
2018-08-27T03:01:39.565Z,1004.11
2018-08-27T03:02:39.521Z,1004.09
2018-08-27T03:04:32.931Z,1004.16
2018-08-27T03:05:32.871Z,1004.16
2018-08-27T03:07:26.281Z,1004.19
2018-08-27T03:08:26.251Z,1004.17
2018-08-27T03:10:19.720Z,1004.11
2018-08-27T03:11:19.613Z,1004.06
2018-08-27T03:13:13.009Z,1003.97
2018-08-27T03:14:12.980Z,1004.05
2018-08-27T03:16:06.384Z,1004.06
2018-08-27T03:17:06.343Z,1004.13
2018-08-27T03:18:59.744Z,1004.19
2018-08-27T03:19:59.701Z,1004.16
2018-08-27T03:21:52.728Z,1004.09
2018-08-27T03:22:52.589Z,1004.10
2018-08-27T03:24:45.496Z,1004.08
2018-08-27T03:25:45.476Z,1004.05
2018-08-27T03:27:38.358Z,1004.06
2018-08-27T03:28:38.332Z,1004.02
2018-08-27T03:30:31.740Z,1003.99
2018-08-27T03:31:31.732Z,1004.04
2018-08-27T03:33:24.687Z,1004.02
2018-08-27T03:34:25.163Z,1003.99
2018-08-27T03:36:18.554Z,1004.01
2018-08-27T03:37:17.950Z,1003.99
2018-08-27T03:39:11.345Z,1003.98
2018-08-27T03:40:11.324Z,1003.93
2018-08-27T03:42:04.285Z,1003.98
2018-08-27T03:43:04.188Z,1003.97
2018-08-27T03:44:57.581Z,1003.93
2018-08-27T03:45:57.544Z,1003.97
2018-08-27T03:47:50.928Z,1003.96
2018-08-27T03:48:50.925Z,1003.93
2018-08-27T03:50:44.459Z,1003.90
2018-08-27T03:51:44.274Z,1003.89
2018-08-27T03:53:37.661Z,1003.85
2018-08-27T03:54:37.635Z,1003.84
2018-08-27T03:56:30.538Z,1003.82
2018-08-27T03:57:30.503Z,1003.83
2018-08-27T03:59:23.909Z,1003.81
2018-08-27T04:00:23.879Z,1003.79
2018-08-27T04:02:16.760Z,1003.80
2018-08-27T04:03:16.752Z,1003.82
2018-08-27T04:05:10.179Z,1003.79
2018-08-27T04:06:10.114Z,1003.85
2018-08-27T04:08:02.997Z,1003.80
2018-08-27T04:09:02.971Z,1003.87
2018-08-27T04:10:57.411Z,1003.84
2018-08-27T04:11:56.340Z,1003.90
2018-08-27T04:13:49.372Z,1003.91
2018-08-27T04:14:49.232Z,1003.90
2018-08-27T04:16:42.615Z,1003.94
2018-08-27T04:17:42.583Z,1003.89
2018-08-27T04:19:36.522Z,1003.91
2018-08-27T04:20:35.944Z,1003.93
2018-08-27T04:22:29.361Z,1003.94
2018-08-27T04:23:29.332Z,1003.93
2018-08-27T04:25:22.408Z,1003.99
2018-08-27T04:26:22.193Z,1003.95
2018-08-27T04:28:15.594Z,1003.97
2018-08-27T04:29:15.554Z,1003.94
2018-08-27T04:31:08.972Z,1003.94
2018-08-27T04:32:08.930Z,1003.92
2018-08-27T04:34:02.427Z,1003.89
2018-08-27T04:35:02.466Z,1003.87
2018-08-27T04:36:55.849Z,1003.87
2018-08-27T04:37:55.687Z,1003.86
2018-08-27T04:39:49.084Z,1003.86
2018-08-27T04:40:49.024Z,1003.88
2018-08-27T04:42:42.515Z,1003.89
2018-08-27T04:43:42.404Z,1003.88
2018-08-27T04:45:35.818Z,1003.86
2018-08-27T04:46:35.776Z,1003.89
2018-08-27T04:48:29.151Z,1003.86
2018-08-27T04:49:29.133Z,1003.85
2018-08-27T04:51:22.560Z,1003.84
2018-08-27T04:52:22.503Z,1003.82
2018-08-27T04:54:16.080Z,1003.83
2018-08-27T04:55:15.864Z,1003.88
2018-08-27T04:57:09.840Z,1003.89
2018-08-27T04:58:09.949Z,1003.89
2018-08-27T05:00:02.741Z,1003.87
2018-08-27T05:01:02.675Z,1003.86
2018-08-27T05:02:55.998Z,1003.85
2018-08-27T05:03:55.552Z,1003.83
2018-08-27T05:05:48.970Z,1003.86
2018-08-27T05:06:48.925Z,1003.86
2018-08-27T05:08:42.314Z,1003.85
2018-08-27T05:09:42.288Z,1003.84
2018-08-27T05:11:35.200Z,1003.92
2018-08-27T05:12:35.244Z,1003.88
2018-08-27T05:14:28.543Z,1003.91
2018-08-27T05:15:28.533Z,1003.90
2018-08-27T05:17:22.482Z,1003.91
2018-08-27T05:18:21.886Z,1003.93
2018-08-27T05:20:14.854Z,1003.96
2018-08-27T05:21:14.761Z,1003.96
2018-08-27T05:23:08.251Z,1003.97
2018-08-27T05:24:08.119Z,1003.95
2018-08-27T05:26:02.498Z,1003.92
2018-08-27T05:27:01.857Z,1003.93
2018-08-27T05:28:54.742Z,1003.93
2018-08-27T05:29:54.737Z,1003.94
2018-08-27T05:31:56.122Z,1003.93
2018-08-27T05:32:48.007Z,1003.95
2018-08-27T05:34:41.001Z,1003.96
2018-08-27T05:35:41.029Z,1003.95
2018-08-27T05:37:34.020Z,1003.92
2018-08-27T05:38:34.067Z,1004.01
2018-08-27T05:40:27.116Z,1004.01
2018-08-27T05:41:26.890Z,1004.02
2018-08-27T05:43:20.139Z,1004.07
2018-08-27T05:44:19.956Z,1004.06
2018-08-27T05:46:13.170Z,1004.10
2018-08-27T05:47:13.105Z,1004.10
2018-08-27T05:49:06.009Z,1004.15
2018-08-27T05:50:05.980Z,1004.17
2018-08-27T05:51:59.385Z,1004.15
2018-08-27T05:52:59.346Z,1004.18
2018-08-27T05:54:52.554Z,1004.17
2018-08-27T05:55:52.786Z,1004.19
2018-08-27T05:57:45.692Z,1004.23
2018-08-27T05:58:45.419Z,1004.29
2018-08-27T06:00:40.522Z,1004.32
2018-08-27T06:01:38.938Z,1004.32
2018-08-27T06:03:32.156Z,1004.35
2018-08-27T06:04:32.128Z,1004.33
2018-08-27T06:06:25.492Z,1004.38
2018-08-27T06:07:25.477Z,1004.36
2018-08-27T06:09:19.036Z,1004.40
2018-08-27T06:10:18.845Z,1004.42
2018-08-27T06:12:12.590Z,1004.45
2018-08-27T06:13:12.558Z,1004.42
2018-08-27T06:15:05.501Z,1004.42
2018-08-27T06:16:05.552Z,1004.49
2018-08-27T06:17:58.552Z,1004.38
2018-08-27T06:18:57.978Z,1004.40
2018-08-27T06:20:51.398Z,1004.42
2018-08-27T06:21:51.473Z,1004.39
2018-08-27T06:23:44.270Z,1004.41
2018-08-27T06:24:44.235Z,1004.43
2018-08-27T06:26:37.745Z,1004.51
2018-08-27T06:27:37.631Z,1004.47
2018-08-27T06:29:31.011Z,1004.55
2018-08-27T06:30:30.978Z,1004.58
2018-08-27T06:32:23.991Z,1004.61
2018-08-27T06:33:23.866Z,1004.61
2018-08-27T06:35:16.846Z,1004.62
2018-08-27T06:36:16.735Z,1004.63
2018-08-27T06:38:09.715Z,1004.65
2018-08-27T06:39:09.611Z,1004.66
2018-08-27T06:41:03.075Z,1004.71
2018-08-27T06:42:03.068Z,1004.70
2018-08-27T06:43:58.680Z,1004.71
2018-08-27T06:44:56.185Z,1004.73
2018-08-27T06:46:48.954Z,1004.71
2018-08-27T06:47:48.891Z,1004.71
2018-08-27T06:49:41.905Z,1004.71
2018-08-27T06:50:41.763Z,1004.69
2018-08-27T06:52:35.148Z,1004.72
2018-08-27T06:53:35.122Z,1004.65
2018-08-27T06:55:28.023Z,1004.73
2018-08-27T06:56:28.014Z,1004.67
2018-08-27T06:58:21.383Z,1004.67
2018-08-27T06:59:21.368Z,1004.67
2018-08-27T07:01:14.833Z,1004.63
2018-08-27T07:02:14.383Z,1004.64
2018-08-27T07:04:07.355Z,1004.58
2018-08-27T07:05:07.236Z,1004.61
2018-08-27T07:07:00.195Z,1004.66
2018-08-27T07:08:00.162Z,1004.64
2018-08-27T07:09:53.537Z,1004.65
2018-08-27T07:10:52.996Z,1004.66
2018-08-27T07:12:45.922Z,1004.69
2018-08-27T07:13:45.858Z,1004.71
2018-08-27T07:15:39.237Z,1004.72
2018-08-27T07:16:39.221Z,1004.71
2018-08-27T07:18:32.644Z,1004.68
2018-08-27T07:19:32.608Z,1004.74
2018-08-27T07:21:25.504Z,1004.79
2018-08-27T07:22:25.515Z,1004.77
2018-08-27T07:24:18.391Z,1004.76
2018-08-27T07:25:18.371Z,1004.79
2018-08-27T07:27:11.771Z,1004.86
2018-08-27T07:28:11.734Z,1004.82
2018-08-27T07:30:05.130Z,1004.87
2018-08-27T07:31:05.110Z,1004.83
2018-08-27T07:32:58.607Z,1004.89
2018-08-27T07:33:58.489Z,1004.87
2018-08-27T07:35:51.874Z,1004.88
2018-08-27T07:36:51.874Z,1004.89
2018-08-27T07:38:44.742Z,1004.89
2018-08-27T07:39:44.729Z,1004.90
2018-08-27T07:41:38.128Z,1004.90
2018-08-27T07:42:38.103Z,1004.88
2018-08-27T07:44:31.030Z,1004.89
2018-08-27T07:45:31.110Z,1004.89
2018-08-27T07:47:23.980Z,1004.88
2018-08-27T07:48:23.872Z,1004.88
2018-08-27T07:50:16.843Z,1004.92
2018-08-27T07:51:16.813Z,1004.96
2018-08-27T07:53:10.195Z,1004.94
2018-08-27T07:54:10.160Z,1004.93
2018-08-27T07:56:04.536Z,1005.00
2018-08-27T07:57:04.528Z,1005.01
2018-08-27T07:58:57.921Z,1005.06
2018-08-27T07:59:57.905Z,1005.06
2018-08-27T08:01:52.388Z,1005.11
2018-08-27T08:02:51.278Z,1005.13
2018-08-27T08:04:44.930Z,1005.08
2018-08-27T08:05:44.666Z,1005.12
2018-08-27T08:07:38.187Z,1005.15
2018-08-27T08:08:38.016Z,1005.24
2018-08-27T08:10:31.429Z,1005.17
2018-08-27T08:11:31.401Z,1005.15
2018-08-27T08:13:24.878Z,1005.10
2018-08-27T08:14:24.788Z,1005.14
2018-08-27T08:16:18.311Z,1005.21
2018-08-27T08:17:18.165Z,1005.16
2018-08-27T08:19:11.566Z,1005.21
2018-08-27T08:20:11.521Z,1005.22
2018-08-27T08:22:04.522Z,1005.26
2018-08-27T08:23:04.425Z,1005.26
2018-08-27T08:24:57.316Z,1005.23
2018-08-27T08:25:57.309Z,1005.22
2018-08-27T08:27:50.343Z,1005.26
2018-08-27T08:28:50.187Z,1005.27
2018-08-27T08:30:43.586Z,1005.34
2018-08-27T08:31:43.683Z,1005.32
2018-08-27T08:33:37.060Z,1005.38
2018-08-27T08:34:36.956Z,1005.32
2018-08-27T08:36:29.900Z,1005.44
2018-08-27T08:37:29.839Z,1005.40
2018-08-27T08:39:22.779Z,1005.41
2018-08-27T08:40:22.728Z,1005.44
2018-08-27T08:42:16.157Z,1005.34
2018-08-27T08:43:16.117Z,1005.39
2018-08-27T08:45:09.017Z,1005.39
2018-08-27T08:46:09.023Z,1005.43
2018-08-27T08:48:02.506Z,1005.48
2018-08-27T08:49:02.387Z,1005.54
2018-08-27T08:50:55.862Z,1005.45
2018-08-27T08:51:55.763Z,1005.46
2018-08-27T08:53:49.186Z,1005.55
2018-08-27T08:54:49.140Z,1005.54
2018-08-27T08:56:42.579Z,1005.60
2018-08-27T08:57:42.548Z,1005.62
2018-08-27T08:59:35.452Z,1005.65
2018-08-27T09:00:35.434Z,1005.65
2018-08-27T09:02:28.353Z,1005.72
2018-08-27T09:03:28.343Z,1005.72
2018-08-27T09:05:21.729Z,1005.71
2018-08-27T09:06:21.792Z,1005.75
2018-08-27T09:08:14.735Z,1005.76
2018-08-27T09:09:14.617Z,1005.73
2018-08-27T09:11:07.633Z,1005.73
2018-08-27T09:12:07.528Z,1005.73
2018-08-27T09:14:01.021Z,1005.73
2018-08-27T09:15:00.899Z,1005.76
2018-08-27T09:16:54.463Z,1005.68
2018-08-27T09:17:54.298Z,1005.75
2018-08-27T09:19:47.795Z,1005.73
2018-08-27T09:20:47.673Z,1005.70
2018-08-27T09:22:41.096Z,1005.75
2018-08-27T09:23:41.101Z,1005.71
2018-08-27T09:25:34.473Z,1005.73
2018-08-27T09:26:34.471Z,1005.73
2018-08-27T09:28:27.552Z,1005.71
2018-08-27T09:29:27.463Z,1005.65
2018-08-27T09:31:20.906Z,1005.71
2018-08-27T09:32:21.032Z,1005.70
2018-08-27T09:34:14.324Z,1005.70
2018-08-27T09:35:14.227Z,1005.68
2018-08-27T09:37:07.618Z,1005.73
2018-08-27T09:38:07.620Z,1005.69
2018-08-27T09:40:00.535Z,1005.74
2018-08-27T09:41:00.505Z,1005.73
2018-08-27T09:42:53.402Z,1005.73
2018-08-27T09:43:53.404Z,1005.73
2018-08-27T09:45:47.380Z,1005.72
2018-08-27T09:46:46.781Z,1005.74
2018-08-27T09:48:41.187Z,1005.72
2018-08-27T09:49:41.172Z,1005.81
2018-08-27T09:51:34.658Z,1005.78
2018-08-27T09:52:34.061Z,1005.85
2018-08-27T09:54:27.619Z,1005.84
2018-08-27T09:55:27.457Z,1005.91
2018-08-27T09:57:20.861Z,1005.86
2018-08-27T09:58:20.824Z,1005.85
2018-08-27T10:00:14.239Z,1005.90
2018-08-27T10:01:14.230Z,1005.93
2018-08-27T10:03:07.622Z,1005.92
2018-08-27T10:04:07.605Z,1005.95
2018-08-27T10:06:00.568Z,1005.91
2018-08-27T10:07:00.508Z,1005.89
2018-08-27T10:08:53.961Z,1005.92
2018-08-27T10:09:53.871Z,1005.92
2018-08-27T10:11:46.840Z,1005.93
2018-08-27T10:12:47.334Z,1005.96
2018-08-27T10:14:40.181Z,1005.93
2018-08-27T10:15:40.157Z,1005.91
2018-08-27T10:17:33.559Z,1005.93
2018-08-27T10:18:33.602Z,1005.91
2018-08-27T10:20:26.571Z,1005.85
2018-08-27T10:21:26.450Z,1005.87
2018-08-27T10:23:19.432Z,1005.83
2018-08-27T10:24:19.867Z,1005.83
2018-08-27T10:26:12.730Z,1005.83
2018-08-27T10:27:12.708Z,1005.85
2018-08-27T10:29:05.716Z,1005.92
2018-08-27T10:30:05.597Z,1005.89
2018-08-27T10:31:59.018Z,1005.96
2018-08-27T10:32:58.982Z,1005.96
2018-08-27T10:34:52.489Z,1005.92
2018-08-27T10:35:51.869Z,1005.96
2018-08-27T10:37:44.770Z,1005.95
2018-08-27T10:38:44.760Z,1005.95
2018-08-27T10:40:37.672Z,1005.92
2018-08-27T10:41:37.651Z,1005.90
2018-08-27T10:43:31.095Z,1005.86
2018-08-27T10:44:31.036Z,1005.92
2018-08-27T10:46:24.023Z,1005.91
2018-08-27T10:47:23.938Z,1005.97
2018-08-27T10:49:16.832Z,1005.99
2018-08-27T10:50:16.900Z,1006.02
2018-08-27T10:52:09.727Z,1006.02
2018-08-27T10:53:09.725Z,1006.02
2018-08-27T10:55:02.771Z,1006.01
2018-08-27T10:56:02.654Z,1006.03
2018-08-27T10:57:56.092Z,1006.05
2018-08-27T10:58:56.020Z,1006.03
2018-08-27T11:00:49.411Z,1006.08
2018-08-27T11:01:49.956Z,1006.05
2018-08-27T11:03:42.443Z,1006.08
2018-08-27T11:04:42.340Z,1006.09
2018-08-27T11:06:35.786Z,1006.13
2018-08-27T11:07:35.281Z,1006.14
2018-08-27T11:09:28.697Z,1006.14
2018-08-27T11:10:28.667Z,1006.13
2018-08-27T11:12:23.084Z,1006.12
2018-08-27T11:13:22.120Z,1006.08
2018-08-27T11:15:15.497Z,1006.10
2018-08-27T11:16:15.482Z,1006.12
2018-08-27T11:18:08.858Z,1006.08
2018-08-27T11:19:08.858Z,1006.04
2018-08-27T11:21:02.280Z,1006.01
2018-08-27T11:22:02.232Z,1006.04
2018-08-27T11:23:55.715Z,1006.00
2018-08-27T11:24:55.146Z,1005.99
2018-08-27T11:26:48.130Z,1005.98
2018-08-27T11:27:48.019Z,1006.01
2018-08-27T11:29:40.997Z,1006.06
2018-08-27T11:30:40.906Z,1006.11
2018-08-27T11:32:34.972Z,1006.14
2018-08-27T11:33:34.859Z,1006.14
2018-08-27T11:35:27.780Z,1006.12
2018-08-27T11:36:27.785Z,1006.16
2018-08-27T11:38:21.183Z,1006.15
2018-08-27T11:39:21.146Z,1006.17
2018-08-27T11:41:14.622Z,1006.26
2018-08-27T11:42:14.536Z,1006.26
2018-08-27T11:44:07.944Z,1006.34
2018-08-27T11:45:07.926Z,1006.29
2018-08-27T11:47:01.413Z,1006.34
2018-08-27T11:48:01.295Z,1006.31
2018-08-27T11:49:54.226Z,1006.28
2018-08-27T11:50:54.388Z,1006.33
2018-08-27T11:52:47.586Z,1006.36
2018-08-27T11:53:47.593Z,1006.30
2018-08-27T11:55:40.619Z,1006.36
2018-08-27T11:56:40.474Z,1006.29
2018-08-27T11:58:33.390Z,1006.29
2018-08-27T11:59:33.378Z,1006.29
2018-08-27T12:01:26.749Z,1006.34
2018-08-27T12:02:27.471Z,1006.37
2018-08-27T12:04:20.189Z,1006.38
2018-08-27T12:05:19.646Z,1006.32
2018-08-27T12:07:13.077Z,1006.38
2018-08-27T12:08:13.019Z,1006.30
2018-08-27T12:10:06.437Z,1006.30
2018-08-27T12:11:06.402Z,1006.31
2018-08-27T12:12:59.920Z,1006.27
2018-08-27T12:13:59.814Z,1006.25
2018-08-27T12:15:53.222Z,1006.22
2018-08-27T12:16:53.300Z,1006.25
2018-08-27T12:18:46.095Z,1006.27
2018-08-27T12:19:46.086Z,1006.25
2018-08-27T12:21:38.981Z,1006.26
2018-08-27T12:22:38.975Z,1006.18
2018-08-27T12:24:32.393Z,1006.24
2018-08-27T12:25:32.343Z,1006.25
2018-08-27T12:27:25.762Z,1006.16
2018-08-27T12:28:25.734Z,1006.15
2018-08-27T12:30:19.708Z,1006.21
2018-08-27T12:31:19.207Z,1006.20
2018-08-27T12:33:12.525Z,1006.20
2018-08-27T12:34:12.507Z,1006.17
2018-08-27T12:36:05.912Z,1006.20
2018-08-27T12:37:05.904Z,1006.26
2018-08-27T12:38:59.313Z,1006.23
2018-08-27T12:39:59.279Z,1006.23
2018-08-27T12:41:52.729Z,1006.17
2018-08-27T12:42:52.690Z,1006.21
2018-08-27T12:44:47.092Z,1006.25
2018-08-27T12:45:47.060Z,1006.21
2018-08-27T12:47:40.576Z,1006.21
2018-08-27T12:48:40.440Z,1006.20
2018-08-27T12:50:33.881Z,1006.17
2018-08-27T12:51:33.854Z,1006.20
2018-08-27T12:53:27.232Z,1006.21
2018-08-27T12:54:27.226Z,1006.21
2018-08-27T12:56:20.737Z,1006.17
2018-08-27T12:57:20.626Z,1006.15
2018-08-27T12:59:14.003Z,1006.24
2018-08-27T13:00:14.004Z,1006.18
2018-08-27T13:02:07.396Z,1006.18
2018-08-27T13:03:07.377Z,1006.16
2018-08-27T13:05:00.282Z,1006.22
2018-08-27T13:06:00.270Z,1006.13
2018-08-27T13:07:54.706Z,1006.16
2018-08-27T13:08:54.653Z,1006.09
2018-08-27T13:10:48.029Z,1006.13
2018-08-27T13:11:48.023Z,1006.08
2018-08-27T13:13:41.121Z,1006.16
2018-08-27T13:14:40.935Z,1006.14
2018-08-27T13:16:33.952Z,1006.28
2018-08-27T13:17:33.816Z,1006.21
2018-08-27T13:19:27.343Z,1006.19
2018-08-27T13:20:27.212Z,1006.29
2018-08-27T13:22:20.664Z,1006.31
2018-08-27T13:23:20.565Z,1006.32
2018-08-27T13:25:14.043Z,1006.44
2018-08-27T13:26:14.088Z,1006.40
2018-08-27T13:28:08.351Z,1006.40
2018-08-27T13:29:08.342Z,1006.45
2018-08-27T13:31:01.259Z,1006.41
2018-08-27T13:32:01.306Z,1006.49
2018-08-27T13:33:54.140Z,1006.48
2018-08-27T13:34:54.134Z,1006.47
2018-08-27T13:36:47.561Z,1006.46
2018-08-27T13:37:47.525Z,1006.43
2018-08-27T13:39:40.949Z,1006.52
2018-08-27T13:40:40.992Z,1006.56
2018-08-27T13:42:34.352Z,1006.58
2018-08-27T13:43:34.341Z,1006.56
2018-08-27T13:45:27.913Z,1006.62
2018-08-27T13:46:27.727Z,1006.64
2018-08-27T13:48:21.260Z,1006.74
2018-08-27T13:49:21.114Z,1006.72
2018-08-27T13:51:14.004Z,1006.64
2018-08-27T13:52:14.020Z,1006.59
2018-08-27T13:54:07.060Z,1006.65
2018-08-27T13:55:06.905Z,1006.66
2018-08-27T13:57:00.291Z,1006.67
2018-08-27T13:58:00.277Z,1006.72
2018-08-27T13:59:53.778Z,1006.75
2018-08-27T14:00:53.654Z,1006.76
2018-08-27T14:02:47.185Z,1006.74
2018-08-27T14:03:47.029Z,1006.77
2018-08-27T14:05:40.531Z,1006.83
2018-08-27T14:06:40.446Z,1006.90
2018-08-27T14:08:33.977Z,1006.91
2018-08-27T14:09:33.838Z,1006.91
2018-08-27T14:11:27.199Z,1006.88
2018-08-27T14:12:27.279Z,1006.90
2018-08-27T14:14:20.589Z,1006.95
2018-08-27T14:15:20.674Z,1006.94
2018-08-27T14:17:13.639Z,1007.03
2018-08-27T14:18:13.473Z,1007.02
2018-08-27T14:20:06.623Z,1007.06
2018-08-27T14:21:06.365Z,1007.12
2018-08-27T14:22:59.749Z,1007.14
2018-08-27T14:23:59.736Z,1007.17
2018-08-27T14:25:53.158Z,1007.22
2018-08-27T14:26:53.669Z,1007.23
2018-08-27T14:28:46.515Z,1007.33
2018-08-27T14:29:46.557Z,1007.34
2018-08-27T14:31:39.914Z,1007.28
2018-08-27T14:32:39.908Z,1007.24
2018-08-27T14:34:33.154Z,1007.24
2018-08-27T14:35:33.075Z,1007.22
2018-08-27T14:37:26.463Z,1007.23
2018-08-27T14:38:26.445Z,1007.23
2018-08-27T14:40:19.432Z,1007.25
2018-08-27T14:41:19.414Z,1007.27
2018-08-27T14:43:13.341Z,1007.24
2018-08-27T14:44:13.303Z,1007.27
2018-08-27T14:46:06.714Z,1007.26
2018-08-27T14:47:06.690Z,1007.24
2018-08-27T14:49:00.102Z,1007.23
2018-08-27T14:50:00.074Z,1007.24
2018-08-27T14:51:52.971Z,1007.30
2018-08-27T14:52:52.967Z,1007.35
2018-08-27T14:54:46.351Z,1007.33
2018-08-27T14:55:46.330Z,1007.31
2018-08-27T14:57:39.863Z,1007.34
2018-08-27T14:58:39.721Z,1007.36
2018-08-27T15:00:33.252Z,1007.40
2018-08-27T15:01:33.100Z,1007.32
2018-08-27T15:03:26.701Z,1007.39
2018-08-27T15:04:26.484Z,1007.31
2018-08-27T15:06:19.428Z,1007.36
2018-08-27T15:07:19.379Z,1007.34
2018-08-27T15:09:12.785Z,1007.49
2018-08-27T15:10:12.776Z,1007.37
2018-08-27T15:12:05.782Z,1007.45
2018-08-27T15:13:05.772Z,1007.44
2018-08-27T15:14:58.989Z,1007.40
2018-08-27T15:15:58.940Z,1007.50
2018-08-27T15:17:51.911Z,1007.45
2018-08-27T15:18:52.392Z,1007.45
2018-08-27T15:20:44.759Z,1007.45
2018-08-27T15:21:44.728Z,1007.43
2018-08-27T15:23:38.150Z,1007.43
2018-08-27T15:24:38.123Z,1007.49
2018-08-27T15:26:32.374Z,1007.42
2018-08-27T15:27:32.348Z,1007.46
2018-08-27T15:29:25.872Z,1007.55
2018-08-27T15:30:25.810Z,1007.59
2018-08-27T15:32:18.664Z,1007.63
2018-08-27T15:33:18.630Z,1007.66
2018-08-27T15:35:11.536Z,1007.70
2018-08-27T15:36:11.519Z,1007.70
2018-08-27T15:38:04.552Z,1007.67
2018-08-27T15:39:04.452Z,1007.73
2018-08-27T15:40:57.316Z,1007.71
2018-08-27T15:41:57.315Z,1007.81
2018-08-27T15:43:50.742Z,1007.79
2018-08-27T15:44:50.737Z,1007.84
2018-08-27T15:46:44.779Z,1007.82
2018-08-27T15:47:44.112Z,1007.81
2018-08-27T15:49:37.119Z,1007.87
2018-08-27T15:50:37.179Z,1007.91
2018-08-27T15:52:30.169Z,1007.92
2018-08-27T15:53:29.995Z,1007.92
2018-08-27T15:55:24.444Z,1007.93
2018-08-27T15:56:24.430Z,1007.97
2018-08-27T15:58:17.792Z,1007.98
2018-08-27T15:59:17.774Z,1007.99
2018-08-27T16:01:11.170Z,1007.97
2018-08-27T16:02:11.185Z,1008.00
2018-08-27T16:04:04.580Z,1008.03
2018-08-27T16:05:04.547Z,1008.09
2018-08-27T16:06:57.455Z,1008.05
2018-08-27T16:07:57.429Z,1008.12
2018-08-27T16:09:51.510Z,1008.14
2018-08-27T16:10:50.820Z,1008.12
2018-08-27T16:12:44.208Z,1008.14
2018-08-27T16:13:43.801Z,1008.12
2018-08-27T16:15:42.580Z,1008.18
2018-08-27T16:16:37.431Z,1008.16
2018-08-27T16:18:30.629Z,1008.24
2018-08-27T16:19:30.625Z,1008.17
2018-08-27T16:21:26.576Z,1008.22
2018-08-27T16:22:26.812Z,1008.22
2018-08-27T16:24:19.961Z,1008.21
2018-08-27T16:25:19.928Z,1008.22
2018-08-27T16:27:14.917Z,1008.25
2018-08-27T16:28:14.302Z,1008.29
2018-08-27T16:30:08.264Z,1008.31
2018-08-27T16:31:08.260Z,1008.29
2018-08-27T16:33:00.852Z,1008.26
2018-08-27T16:34:00.551Z,1008.29
2018-08-27T16:35:53.536Z,1008.30
2018-08-27T16:36:53.500Z,1008.35
2018-08-27T16:38:47.215Z,1008.34
2018-08-27T16:39:47.176Z,1008.35
2018-08-27T16:41:40.192Z,1008.38
2018-08-27T16:42:40.533Z,1008.40
2018-08-27T16:44:33.477Z,1008.39
2018-08-27T16:45:33.197Z,1008.38
2018-08-27T16:47:26.367Z,1008.44
2018-08-27T16:48:25.982Z,1008.40
2018-08-27T16:50:19.807Z,1008.47
2018-08-27T16:51:19.397Z,1008.42
2018-08-27T16:53:12.944Z,1008.49
2018-08-27T16:54:13.127Z,1008.55
2018-08-27T16:56:06.474Z,1008.57
2018-08-27T16:57:05.716Z,1008.53
2018-08-27T16:58:59.347Z,1008.56
2018-08-27T16:59:59.033Z,1008.55
2018-08-27T17:01:52.471Z,1008.53
2018-08-27T17:02:52.468Z,1008.57
2018-08-27T17:04:46.044Z,1008.59
2018-08-27T17:05:45.785Z,1008.57
2018-08-27T17:07:39.048Z,1008.63
2018-08-27T17:08:38.886Z,1008.58
2018-08-27T17:10:32.258Z,1008.64
2018-08-27T17:11:32.049Z,1008.64
2018-08-27T17:13:25.722Z,1008.68
2018-08-27T17:14:25.471Z,1008.70
2018-08-27T17:16:18.857Z,1008.73
2018-08-27T17:17:18.795Z,1008.74
2018-08-27T17:19:11.836Z,1008.80
2018-08-27T17:20:11.781Z,1008.82
2018-08-27T17:22:05.486Z,1008.89
2018-08-27T17:23:05.168Z,1008.87
2018-08-27T17:24:58.177Z,1008.88
2018-08-27T17:25:58.064Z,1008.93
2018-08-27T17:27:51.464Z,1008.92